Time;durP1;ratioP1;P1;durP2;ratioP2;P2;SDS_P1;SDS_P2;PMS_P1;PMS_P2;Temp;Humidity;BMP_temperature;BMP_pressure;BME280_temperature;BME280_humidity;BME280_pressure;Samples;Min_cycle;Max_cycle;Signal;HPM_P1;HPM_P2
2021/01/16 00:00:25;;;;;;;15.23;9.40;;;;;;;3.34;56.09;101593.47;5035563;28;20045;-66
2021/01/16 00:02:52;;;;;;;15.15;10.00;;;;;;;3.33;55.72;101605.56;5035210;28;20053;-65
2021/01/16 00:05:22;;;;;;;14.80;9.23;;;;;;;3.37;55.80;101595.75;5034272;28;20061;-65
2021/01/16 00:08:01;;;;;;;16.95;8.95;;;;;;;3.37;55.26;101589.41;5036109;28;20053;-65
2021/01/16 00:10:28;;;;;;;16.52;10.23;;;;;;;3.39;55.97;101588.09;5038025;28;20061;-65
2021/01/16 00:12:55;;;;;;;15.85;10.02;;;;;;;3.38;55.71;101589.19;5036890;28;20068;-65
2021/01/16 00:15:23;;;;;;;14.43;9.50;;;;;;;3.39;56.10;101590.00;5036898;28;20049;-65
2021/01/16 00:18:00;;;;;;;13.18;9.02;;;;;;;3.36;55.61;101582.19;5021171;28;75257;-65
2021/01/16 00:20:27;;;;;;;15.23;9.38;;;;;;;3.36;55.73;101583.06;5039025;28;20050;-65
2021/01/16 00:22:55;;;;;;;15.88;9.57;;;;;;;3.37;56.39;101579.22;5035508;28;20049;-65
2021/01/16 00:25:22;;;;;;;18.70;11.13;;;;;;;3.40;56.98;101570.50;5032347;28;20395;-65
2021/01/16 00:27:49;;;;;;;16.05;9.40;;;;;;;3.39;56.56;101576.25;5018932;28;20046;-65
2021/01/16 00:30:18;;;;;;;14.40;9.00;;;;;;;3.40;56.55;101578.75;5017273;28;20045;-65
2021/01/16 00:32:48;;;;;;;17.60;10.02;;;;;;;3.40;57.13;101578.75;5018699;28;20061;-65
2021/01/16 00:35:17;;;;;;;15.90;10.30;;;;;;;3.42;56.49;101565.59;5018947;28;20490;-65
2021/01/16 00:37:48;;;;;;;14.38;9.07;;;;;;;3.33;56.50;101556.00;5018265;28;20057;-65
2021/01/16 00:40:17;;;;;;;15.80;9.55;;;;;;;3.33;56.86;101566.19;5023499;28;20064;-65
2021/01/16 00:42:48;;;;;;;17.40;9.98;;;;;;;3.39;57.00;101573.47;5026628;28;20057;-65
2021/01/16 00:45:16;;;;;;;19.98;11.13;;;;;;;3.43;57.10;101582.94;5032683;28;20045;-65
2021/01/16 00:47:44;;;;;;;17.52;11.07;;;;;;;3.44;55.98;101579.97;5036054;28;20045;-65
2021/01/16 00:50:13;;;;;;;18.90;11.10;;;;;;;3.48;57.17;101577.53;5029138;28;20419;-65
2021/01/16 00:52:43;;;;;;;15.80;10.07;;;;;;;3.51;56.93;101579.84;5016668;28;20054;-65
2021/01/16 00:55:11;;;;;;;15.38;9.73;;;;;;;3.49;56.32;101582.00;5035380;28;20405;-65
2021/01/16 00:57:39;;;;;;;15.40;10.60;;;;;;;3.50;56.20;101572.63;5032053;28;20501;-65
2021/01/16 01:00:07;;;;;;;18.52;11.30;;;;;;;3.51;57.69;101570.72;5032107;28;20042;-65
2021/01/16 01:02:41;;;;;;;23.42;13.85;;;;;;;3.53;56.09;101577.69;5035608;28;20057;-65
2021/01/16 01:05:09;;;;;;;15.98;10.32;;;;;;;3.54;56.31;101578.50;5017643;28;20050;-65
2021/01/16 01:07:38;;;;;;;18.45;11.18;;;;;;;3.52;56.34;101567.72;5020490;28;20054;-65
2021/01/16 01:10:07;;;;;;;18.02;10.57;;;;;;;3.50;56.97;101572.63;5016021;28;20050;-66
2021/01/16 01:12:34;;;;;;;18.88;10.73;;;;;;;3.53;56.45;101572.16;5034214;28;20053;-66
2021/01/16 01:15:01;;;;;;;15.60;10.85;;;;;;;3.51;57.65;101568.81;5013700;28;20052;-65
2021/01/16 01:17:28;;;;;;;17.52;11.00;;;;;;;3.56;56.43;101566.16;5013996;28;20057;-66
2021/01/16 01:19:55;;;;;;;16.27;10.32;;;;;;;3.63;55.77;101566.91;5013641;28;20049;-64
2021/01/16 01:22:22;;;;;;;18.90;10.63;;;;;;;3.63;56.31;101571.53;5014343;28;20490;-65
2021/01/16 01:24:49;;;;;;;19.20;11.70;;;;;;;3.55;57.08;101570.00;5013078;28;20058;-65
2021/01/16 01:27:16;;;;;;;19.25;11.48;;;;;;;3.58;56.71;101571.44;5013932;28;20061;-65
2021/01/16 01:29:43;;;;;;;16.42;10.15;;;;;;;3.55;57.32;101570.00;5013415;28;20050;-65
2021/01/16 01:32:10;;;;;;;17.77;10.77;;;;;;;3.58;57.03;101569.53;5013993;28;20499;-65
2021/01/16 01:34:37;;;;;;;17.58;10.05;;;;;;;3.54;56.72;101565.56;5013766;28;20057;-66
2021/01/16 01:37:05;;;;;;;15.35;10.15;;;;;;;3.52;56.70;101564.13;5013268;28;20057;-66
2021/01/16 01:39:31;;;;;;;16.23;10.52;;;;;;;3.54;56.91;101568.31;5013639;28;20058;-66
2021/01/16 01:41:58;;;;;;;18.33;10.20;;;;;;;3.52;56.40;101566.88;5013784;28;20068;-66
2021/01/16 01:44:25;;;;;;;17.33;10.80;;;;;;;3.56;56.68;101559.81;5013408;28;20046;-65
2021/01/16 01:46:52;;;;;;;17.27;10.98;;;;;;;3.47;57.30;101558.53;5013731;28;20058;-66
2021/01/16 01:49:20;;;;;;;16.48;9.93;;;;;;;3.48;57.37;101558.25;5013322;28;20514;-65
2021/01/16 01:51:48;;;;;;;16.10;10.10;;;;;;;3.43;57.68;101555.41;5014191;28;20061;-65
2021/01/16 01:54:17;;;;;;;14.93;9.60;;;;;;;3.41;57.39;101550.13;5013911;28;20057;-66
2021/01/16 01:56:46;;;;;;;13.73;9.35;;;;;;;3.38;57.40;101558.03;5013777;28;20050;-65
2021/01/16 01:59:15;;;;;;;16.10;10.20;;;;;;;3.39;58.20;101555.03;5016840;28;20050;-66
2021/01/16 02:01:50;;;;;;;17.02;10.18;;;;;;;3.32;58.39;101551.56;5018160;28;20058;-65
2021/01/16 02:04:18;;;;;;;15.70;9.63;;;;;;;3.32;57.63;101548.81;5018414;28;20053;-65
2021/01/16 02:06:46;;;;;;;15.20;10.13;;;;;;;3.33;57.69;101544.16;5018060;28;20049;-65
2021/01/16 02:09:13;;;;;;;16.30;10.27;;;;;;;3.35;57.47;101542.00;5016791;28;20058;-66
2021/01/16 02:11:43;;;;;;;14.85;9.05;;;;;;;3.35;57.19;101550.25;5017935;28;20060;-65
2021/01/16 02:14:10;;;;;;;15.27;9.35;;;;;;;3.35;57.92;101544.75;5017666;28;20053;-65
2021/01/16 02:16:42;;;;;;;15.52;10.15;;;;;;;3.37;57.69;101537.91;5017189;28;20057;-65
2021/01/16 02:19:12;;;;;;;14.65;9.60;;;;;;;3.10;57.92;101534.78;5016831;28;20073;-65
2021/01/16 02:21:47;;;;;;;14.75;9.23;;;;;;;3.11;59.38;101542.00;5017078;28;20420;-65
2021/01/16 02:24:18;;;;;;;18.33;10.18;;;;;;;3.20;58.27;101536.97;5016422;28;20053;-65
2021/01/16 02:27:24;;;;;;;16.77;10.13;;;;;;;3.23;57.36;101542.84;5017237;28;20050;-65
2021/01/16 02:29:51;;;;;;;14.80;9.43;;;;;;;3.24;58.61;101535.41;5016888;28;20392;-65
2021/01/16 02:32:21;;;;;;;14.65;9.35;;;;;;;3.26;58.29;101538.75;5016957;28;20065;-65
2021/01/16 02:34:50;;;;;;;17.17;9.18;;;;;;;3.29;58.10;101534.69;5017214;28;20165;-65
2021/01/16 02:37:34;;;;;;;12.63;8.60;;;;;;;3.30;58.87;101528.94;5017071;28;20057;-65
2021/01/16 02:40:10;;;;;;;14.05;9.43;;;;;;;3.20;57.55;101523.19;5016163;28;20058;-65
2021/01/16 02:42:45;;;;;;;15.90;9.43;;;;;;;3.17;57.89;101519.03;5016931;28;20056;-65
2021/01/16 02:45:17;;;;;;;17.60;9.77;;;;;;;3.23;57.80;101518.06;5016726;28;20056;-65
2021/01/16 02:48:01;;;;;;;14.93;9.20;;;;;;;3.29;57.44;101520.91;5016562;28;20057;-65
2021/01/16 02:50:28;;;;;;;14.40;9.63;;;;;;;3.29;57.65;101513.50;5016916;28;20061;-66
2021/01/16 02:53:01;;;;;;;14.02;8.75;;;;;;;3.31;58.10;101516.84;5017000;28;20061;-65
2021/01/16 02:55:28;;;;;;;15.10;8.20;;;;;;;3.27;57.64;101506.56;5017072;28;20053;-65
2021/01/16 02:57:59;;;;;;;14.55;9.05;;;;;;;3.29;56.84;101510.75;5015741;28;20514;-65
2021/01/16 03:00:26;;;;;;;12.88;8.75;;;;;;;3.35;56.71;101503.44;5001679;28;20054;-66
2021/01/16 03:02:53;;;;;;;14.40;9.02;;;;;;;3.33;56.93;101502.84;5011298;28;20053;-66
2021/01/16 03:05:22;;;;;;;13.18;8.15;;;;;;;3.30;56.60;101500.56;5006058;28;20061;-66
2021/01/16 03:07:50;;;;;;;16.13;9.27;;;;;;;3.30;56.56;101489.53;4995724;28;20046;-66
2021/01/16 03:10:17;;;;;;;14.35;9.05;;;;;;;3.28;57.71;101500.81;4996256;28;20054;-65
2021/01/16 03:12:44;;;;;;;14.23;8.48;;;;;;;3.29;58.46;101496.97;4996391;28;20054;-66
2021/01/16 03:15:17;;;;;;;14.45;9.07;;;;;;;3.29;56.88;101504.41;4996088;28;20054;-66
2021/01/16 03:17:54;;;;;;;11.85;8.40;;;;;;;3.31;56.97;101505.00;4996994;28;20061;-66
2021/01/16 03:20:23;;;;;;;13.30;9.27;;;;;;;3.32;55.90;101504.75;4996530;28;20507;-65
2021/01/16 03:22:51;;;;;;;13.25;8.25;;;;;;;3.32;55.76;101503.91;4995795;28;20054;-65
2021/01/16 03:25:22;;;;;;;14.52;9.32;;;;;;;3.22;56.14;101510.88;5009418;28;20046;-65
2021/01/16 03:27:52;;;;;;;13.35;8.40;;;;;;;3.27;56.70;101506.56;5014615;28;20407;-65
2021/01/16 03:30:28;;;;;;;14.88;9.13;;;;;;;3.31;56.28;101510.50;5015147;28;20484;-65
2021/01/16 03:32:55;;;;;;;13.40;8.52;;;;;;;3.17;56.48;101513.50;5015109;28;20056;-65
2021/01/16 03:35:24;;;;;;;12.98;8.02;;;;;;;3.17;56.93;101510.75;5014696;28;20088;-65
2021/01/16 03:37:51;;;;;;;12.38;8.35;;;;;;;3.17;57.66;101504.41;5014232;28;20053;-65
2021/01/16 03:40:18;;;;;;;13.57;8.27;;;;;;;3.12;56.44;101499.63;4996001;28;20495;-65
2021/01/16 03:42:45;;;;;;;15.82;9.15;;;;;;;3.11;56.87;101505.34;4995506;28;20387;-65
2021/01/16 03:45:15;;;;;;;14.00;9.25;;;;;;;3.10;56.62;101503.69;4995149;28;20059;-65
2021/01/16 03:47:43;;;;;;;14.07;8.27;;;;;;;3.11;56.30;101500.69;4994957;28;20052;-65
2021/01/16 03:50:10;;;;;;;16.75;10.02;;;;;;;3.02;56.64;101499.38;4994651;28;20053;-65
2021/01/16 03:52:39;;;;;;;13.15;8.32;;;;;;;2.91;57.61;101498.28;4994679;28;20050;-65
2021/01/16 03:55:07;;;;;;;14.15;8.50;;;;;;;2.92;58.00;101501.88;4994876;28;20081;-65
2021/01/16 03:57:35;;;;;;;14.20;8.95;;;;;;;2.97;57.56;101496.50;4994311;28;20430;-65
2021/01/16 04:00:03;;;;;;;14.68;9.02;;;;;;;3.02;58.02;101497.47;4994620;28;20061;-66
2021/01/16 04:02:30;;;;;;;14.68;8.43;;;;;;;3.04;57.50;101494.47;4994556;28;20057;-65
2021/01/16 04:04:58;;;;;;;16.90;9.00;;;;;;;3.07;56.86;101498.66;4994287;28;20050;-65
2021/01/16 04:07:24;;;;;;;14.07;8.90;;;;;;;3.10;56.11;101500.94;4994542;28;20050;-65
2021/01/16 04:09:51;;;;;;;14.18;9.25;;;;;;;3.08;56.53;101492.06;4994668;28;20058;-65
2021/01/16 04:12:18;;;;;;;16.52;10.15;;;;;;;3.05;56.54;101494.22;4994478;28;20077;-66
2021/01/16 04:14:45;;;;;;;13.57;9.30;;;;;;;3.01;57.09;101498.53;4994668;28;20054;-66
2021/01/16 04:17:12;;;;;;;16.17;8.90;;;;;;;2.99;56.47;101489.69;4994060;28;20051;-65
2021/01/16 04:19:39;;;;;;;17.17;9.77;;;;;;;3.00;56.71;101491.38;4993404;28;20058;-65
2021/01/16 04:22:06;;;;;;;16.75;9.48;;;;;;;3.00;56.91;101490.50;4993899;28;20058;-65
2021/01/16 04:24:33;;;;;;;17.58;9.80;;;;;;;3.02;57.31;101489.22;4993097;28;20499;-65
2021/01/16 04:27:01;;;;;;;16.15;9.32;;;;;;;3.02;57.44;101488.34;4994270;28;20065;-65
2021/01/16 04:29:28;;;;;;;16.75;9.52;;;;;;;2.95;56.98;101493.16;4993835;28;20488;-65
2021/01/16 04:31:55;;;;;;;17.33;9.40;;;;;;;2.94;57.37;101480.44;4994613;28;20054;-65
2021/01/16 04:34:24;;;;;;;16.60;9.88;;;;;;;2.99;56.94;101470.41;4993875;28;20171;-65
2021/01/16 04:36:51;;;;;;;14.38;8.95;;;;;;;2.95;57.13;101462.88;4993739;28;20058;-65
2021/01/16 04:39:19;;;;;;;15.00;8.93;;;;;;;2.94;56.80;101463.94;4994082;28;20057;-65
2021/01/16 04:41:47;;;;;;;14.80;9.52;;;;;;;2.97;57.29;101460.72;4993574;28;20444;-65
2021/01/16 04:44:15;;;;;;;15.25;8.95;;;;;;;2.92;56.83;101457.84;4993660;28;20050;-65
2021/01/16 04:46:43;;;;;;;17.35;10.07;;;;;;;2.94;57.13;101447.44;4993726;28;20050;-65
2021/01/16 04:49:10;;;;;;;16.13;9.40;;;;;;;2.87;57.12;101447.56;4994315;28;20495;-65
2021/01/16 04:51:43;;;;;;;15.65;9.98;;;;;;;2.91;57.07;101442.41;4993483;28;20054;-65
2021/01/16 04:54:14;;;;;;;15.73;8.35;;;;;;;2.91;56.62;101431.41;4994328;28;20479;-65
2021/01/16 04:56:46;;;;;;;17.48;9.75;;;;;;;2.92;57.66;101431.19;4993694;28;20142;-65
2021/01/16 04:59:13;;;;;;;13.77;8.73;;;;;;;2.89;57.58;101436.31;5013113;28;20050;-65
2021/01/16 05:01:40;;;;;;;13.82;9.32;;;;;;;2.90;57.37;101421.47;5012893;28;20050;-66
2021/01/16 05:04:08;;;;;;;15.75;9.75;;;;;;;2.92;56.93;101435.81;5011944;28;20050;-65
2021/01/16 05:06:39;;;;;;;15.43;9.68;;;;;;;2.85;57.57;101431.28;5006672;28;20064;-65
2021/01/16 05:09:07;;;;;;;15.07;9.63;;;;;;;2.91;56.98;101434.16;5013229;28;20054;-65
2021/01/16 05:11:38;;;;;;;14.98;9.85;;;;;;;2.92;57.83;101424.81;5012219;28;20425;-65
2021/01/16 05:14:17;;;;;;;15.90;9.82;;;;;;;2.97;57.15;101408.44;5012595;28;20057;-65
2021/01/16 05:16:53;;;;;;;14.82;9.85;;;;;;;2.86;57.94;101410.13;5012798;28;20053;-65
2021/01/16 05:19:22;;;;;;;16.95;9.57;;;;;;;2.77;58.21;101417.91;5012356;28;20050;-65
2021/01/16 05:21:49;;;;;;;17.23;10.70;;;;;;;2.84;58.54;101412.28;5012650;28;20054;-65
2021/01/16 05:24:19;;;;;;;16.30;10.15;;;;;;;2.85;58.54;101412.00;5005839;28;20053;-65
2021/01/16 05:27:02;;;;;;;15.52;9.65;;;;;;;2.73;58.40;101415.84;5013088;28;20058;-65
2021/01/16 05:29:31;;;;;;;16.60;9.95;;;;;;;2.69;58.16;101406.41;5013017;28;20050;-65
2021/01/16 05:32:00;;;;;;;18.43;9.97;;;;;;;2.69;58.71;101406.41;5012546;28;20054;-65
2021/01/16 05:34:29;;;;;;;17.70;10.60;;;;;;;2.68;58.71;101404.75;5012570;28;20054;-65
2021/01/16 05:36:58;;;;;;;15.52;9.25;;;;;;;2.58;58.62;101402.56;5013117;28;20076;-65
2021/01/16 05:39:28;;;;;;;19.37;10.47;;;;;;;2.55;58.33;101397.56;5004791;28;20050;-65
2021/01/16 05:42:00;;;;;;;15.55;9.60;;;;;;;2.51;58.41;101401.84;5012737;28;20060;-65
2021/01/16 05:44:27;;;;;;;15.55;9.60;;;;;;;2.55;58.19;101395.63;5012265;28;20079;-66
2021/01/16 05:46:56;;;;;;;15.80;9.80;;;;;;;2.61;58.34;101399.34;5012088;28;20054;-65
2021/01/16 05:49:24;;;;;;;15.23;9.10;;;;;;;2.52;58.28;101400.78;5012290;28;20050;-65
2021/01/16 05:51:52;;;;;;;14.70;9.35;;;;;;;2.57;57.75;101398.16;5012420;28;20070;-65
2021/01/16 05:54:20;;;;;;;15.88;9.65;;;;;;;2.64;58.11;101399.69;5010219;28;20050;-65
2021/01/16 05:56:49;;;;;;;16.40;9.75;;;;;;;2.73;57.59;101402.97;5012272;28;20509;-66
2021/01/16 05:59:17;;;;;;;14.70;9.02;;;;;;;2.74;57.01;101399.13;5012305;28;20072;-65
2021/01/16 06:01:46;;;;;;;15.93;9.50;;;;;;;2.74;56.76;101401.88;5008485;28;20050;-65
2021/01/16 06:04:18;;;;;;;17.63;10.02;;;;;;;2.74;56.65;101390.84;5009698;28;20057;-66
2021/01/16 06:06:46;;;;;;;15.80;9.10;;;;;;;2.62;56.99;101399.13;5007360;28;20057;-66
2021/01/16 06:09:15;;;;;;;13.55;8.60;;;;;;;2.56;57.49;101402.84;5012905;28;20410;-66
2021/01/16 06:11:46;;;;;;;16.42;9.18;;;;;;;2.57;57.22;101389.91;5012387;28;20479;-65
2021/01/16 06:14:14;;;;;;;15.32;8.43;;;;;;;2.57;57.54;101392.66;5012100;28;20050;-65
2021/01/16 06:16:51;;;;;;;14.95;8.35;;;;;;;2.57;56.88;101392.66;5012480;28;20379;-65
2021/01/16 06:19:25;;;;;;;14.27;8.70;;;;;;;2.62;57.01;101396.38;5011740;28;20058;-65
2021/01/16 06:21:54;;;;;;;15.80;9.05;;;;;;;2.63;57.24;101386.22;5012100;28;20053;-65
2021/01/16 06:24:24;;;;;;;15.38;9.00;;;;;;;2.57;57.93;101384.41;5005852;28;20065;-65
2021/01/16 06:26:58;;;;;;;14.10;8.75;;;;;;;2.63;57.23;101387.03;5012466;28;20049;-65
2021/01/16 06:29:27;;;;;;;16.60;10.02;;;;;;;2.49;57.84;101373.75;5004093;28;20061;-65
2021/01/16 06:32:03;;;;;;;13.80;8.57;;;;;;;2.56;57.41;101375.31;5011742;28;20054;-66
2021/01/16 06:34:32;;;;;;;14.57;8.85;;;;;;;2.55;57.44;101372.81;5011620;28;20049;-65
2021/01/16 06:37:13;;;;;;;14.18;8.40;;;;;;;2.55;57.07;101372.81;5012481;28;20072;-65
2021/01/16 06:39:41;;;;;;;15.20;8.77;;;;;;;2.42;57.74;101366.47;5012193;28;20046;-65
2021/01/16 06:42:11;;;;;;;15.93;9.50;;;;;;;2.40;58.25;101360.38;5012164;28;20054;-65
2021/01/16 06:44:38;;;;;;;13.57;8.38;;;;;;;2.49;58.54;101362.75;5008993;28;20057;-65
2021/01/16 06:47:06;;;;;;;14.93;8.98;;;;;;;2.54;58.19;101363.72;5012989;28;20068;-65
2021/01/16 06:49:35;;;;;;;16.15;9.70;;;;;;;2.47;58.05;101351.16;5015518;28;20073;-65
2021/01/16 06:52:03;;;;;;;14.18;9.50;;;;;;;2.53;58.57;101355.72;5015735;28;20483;-65
2021/01/16 06:54:34;;;;;;;13.18;8.27;;;;;;;2.61;58.07;101345.19;5015471;28;20050;-65
2021/01/16 06:57:06;;;;;;;15.85;9.35;;;;;;;2.60;58.15;101343.53;5015137;28;20091;-65
2021/01/16 06:59:34;;;;;;;15.32;9.23;;;;;;;2.63;57.81;101347.69;5008447;28;20411;-65
2021/01/16 07:02:20;;;;;;;15.23;9.15;;;;;;;2.67;57.70;101334.28;5009345;28;20054;-65
2021/01/16 07:04:53;;;;;;;13.48;8.88;;;;;;;2.63;57.90;101342.19;5008824;28;20074;-65
2021/01/16 07:07:27;;;;;;;16.38;10.05;;;;;;;2.58;57.53;101329.19;5015074;28;20064;-65
2021/01/16 07:09:57;;;;;;;14.23;8.73;;;;;;;2.65;57.79;101337.28;5015145;28;20056;-65
2021/01/16 07:12:24;;;;;;;14.85;9.38;;;;;;;2.66;58.39;101347.22;5015149;28;20058;-65
2021/01/16 07:14:51;;;;;;;16.15;9.32;;;;;;;2.69;57.70;101344.00;5014803;28;20262;-65
2021/01/16 07:17:21;;;;;;;14.52;8.23;;;;;;;2.73;57.69;101347.94;5014551;28;20062;-65
2021/01/16 07:19:48;;;;;;;13.10;8.57;;;;;;;2.56;57.47;101341.47;5007338;28;20045;-65
2021/01/16 07:22:18;;;;;;;15.50;8.63;;;;;;;2.55;57.92;101340.63;5013704;28;20415;-66
2021/01/16 07:24:46;;;;;;;14.63;8.77;;;;;;;2.65;58.29;101345.53;5008946;28;20076;-65
2021/01/16 07:27:14;;;;;;;14.07;8.98;;;;;;;2.66;57.09;101340.88;5015052;28;20050;-66
2021/01/16 07:29:42;;;;;;;15.05;8.68;;;;;;;2.77;57.30;101346.38;5014710;28;20050;-65
2021/01/16 07:32:15;;;;;;;14.80;9.32;;;;;;;2.79;56.81;101346.13;5014453;28;20054;-65
2021/01/16 07:34:47;;;;;;;14.73;8.38;;;;;;;2.86;56.56;101352.34;5014366;28;20053;-65
2021/01/16 07:37:17;;;;;;;13.90;9.35;;;;;;;2.92;56.27;101345.03;5014544;28;20383;-65
2021/01/16 07:39:44;;;;;;;;;;;;;;;2.73;57.18;101344.31;5006945;28;20082;-65
2021/01/16 07:42:13;;;;;;;14.25;8.45;;;;;;;2.68;57.58;101345.06;5014738;28;19922;-65
2021/01/16 07:44:45;;;;;;;14.15;8.93;;;;;;;2.72;57.30;101349.00;5014269;28;20060;-65
2021/01/16 07:47:23;;;;;;;16.95;10.70;;;;;;;2.77;59.83;101338.13;5014727;28;20061;-65
2021/01/16 07:49:57;;;;;;;16.80;9.00;;;;;;;2.66;56.56;101341.72;5014292;28;20081;-65
2021/01/16 07:52:27;;;;;;;16.13;9.52;;;;;;;2.71;57.55;101343.72;5014544;28;20050;-65
2021/01/16 07:55:07;;;;;;;14.30;8.55;;;;;;;2.79;57.64;101335.97;5012230;28;20053;-65
2021/01/16 07:57:37;;;;;;;14.38;8.85;;;;;;;2.74;56.44;101337.75;5014310;28;20065;-65
2021/01/16 08:00:09;;;;;;;14.43;8.33;;;;;;;2.73;56.09;101336.06;5013622;28;20054;-65
2021/01/16 08:02:44;;;;;;;14.52;8.57;;;;;;;2.68;56.95;101334.06;5001397;28;20049;-65
2021/01/16 08:05:24;;;;;;;12.57;8.20;;;;;;;2.73;56.71;101338.81;5013160;28;20185;-65
2021/01/16 08:08:05;;;;;;;;;;;;;;;2.69;56.64;101333.00;5014781;28;20054;-65
2021/01/16 08:10:32;;;;;;;;;;;;;;;2.70;56.61;101331.06;5011388;28;19933;-65
2021/01/16 08:13:02;;;;;;;14.13;7.82;;;;;;;2.72;56.83;101331.66;5013941;28;19944;-65
2021/01/16 08:15:30;;;;;;;11.77;7.75;;;;;;;2.74;56.63;101327.59;5013734;28;20053;-65
2021/01/16 08:18:00;;;;;;;13.90;8.23;;;;;;;2.73;56.58;101319.56;5013972;28;20061;-65
2021/01/16 08:20:34;;;;;;;15.40;8.70;;;;;;;2.76;55.63;101319.94;5014251;28;20058;-65
2021/01/16 08:23:06;;;;;;;14.98;8.75;;;;;;;2.81;55.46;101314.56;5021152;28;20446;-65
2021/01/16 08:25:34;;;;;;;12.48;7.38;;;;;;;2.75;55.57;101307.28;5012723;28;20411;-66
2021/01/16 08:28:04;;;;;;;13.60;8.75;;;;;;;2.87;55.27;101303.66;5013572;28;20057;-65
2021/01/16 08:30:33;;;;;;;15.95;9.02;;;;;;;2.80;55.73;101288.09;5007056;28;20053;-65
2021/01/16 08:33:06;;;;;;;14.10;9.02;;;;;;;2.89;55.92;101285.81;5013621;28;20053;-65
2021/01/16 08:35:42;;;;;;;14.05;8.35;;;;;;;3.00;55.72;101282.22;5012327;28;20062;-65
2021/01/16 08:38:26;;;;;;;14.48;8.23;;;;;;;3.06;54.00;101283.13;5022731;28;20410;-65
2021/01/16 08:41:02;;;;;;;13.13;8.35;;;;;;;3.06;54.09;101274.88;5024719;28;20053;-65
2021/01/16 08:43:31;;;;;;;12.60;7.60;;;;;;;3.11;54.35;101279.63;5005857;28;20053;-65
2021/01/16 08:46:12;;;;;;;13.02;8.57;;;;;;;3.17;54.00;101286.91;5004638;28;20054;-65
2021/01/16 08:48:41;;;;;;;13.75;8.15;;;;;;;3.11;54.90;101275.00;5001966;28;20496;-65
2021/01/16 08:51:31;;;;;;;16.45;9.68;;;;;;;3.28;53.97;101280.53;4999226;28;20058;-65
2021/01/16 08:54:13;;;;;;;14.40;9.00;;;;;;;3.31;54.20;101276.47;5000785;28;20050;-65
2021/01/16 08:56:41;;;;;;;13.63;8.40;;;;;;;3.37;53.92;101270.81;5012622;28;20407;-65
2021/01/16 08:59:17;;;;;;;14.88;9.77;;;;;;;3.40;52.65;101269.47;5015002;28;20069;-65
2021/01/16 09:01:47;;;;;;;20.00;11.38;;;;;;;3.39;52.35;101271.38;5022671;28;20054;-65
2021/01/16 09:04:18;;;;;;;13.57;8.15;;;;;;;3.38;52.59;101277.13;5009608;28;20069;-65
2021/01/16 09:06:45;;;;;;;15.43;8.73;;;;;;;3.31;52.14;101270.94;5014266;28;20049;-65
2021/01/16 09:09:15;;;;;;;12.52;8.27;;;;;;;3.34;53.14;101273.19;5022785;28;20046;-66
2021/01/16 09:12:06;;;;;;;13.23;8.00;;;;;;;3.43;52.92;101274.50;5019351;28;20061;-65
2021/01/16 09:14:33;;;;;;;12.25;8.18;;;;;;;3.37;52.30;101276.31;5009887;28;20061;-65
2021/01/16 09:17:15;;;;;;;13.68;7.93;;;;;;;3.31;52.42;101282.78;5001828;28;20057;-65
2021/01/16 09:19:42;;;;;;;12.05;8.02;;;;;;;3.37;52.65;101275.47;5001776;28;20410;-65
2021/01/16 09:22:20;;;;;;;15.27;9.13;;;;;;;3.41;52.73;101284.91;5008588;28;20069;-65
2021/01/16 09:24:50;;;;;;;13.40;8.55;;;;;;;3.49;51.86;101281.78;5016890;28;20124;-66
2021/01/16 09:27:26;;;;;;;;;;;;;;;3.55;52.27;101277.16;5021088;28;20057;-66
2021/01/16 09:29:53;;;;;;;13.88;7.95;;;;;;;3.62;51.88;101275.94;5004460;28;19926;-66
2021/01/16 09:32:34;;;;;;;12.95;7.70;;;;;;;3.57;52.33;101269.50;5013341;28;20054;-65
2021/01/16 09:35:04;;;;;;;13.73;8.20;;;;;;;3.60;52.29;101275.34;5006281;28;20050;-65
2021/01/16 09:37:35;;;;;;;12.77;7.88;;;;;;;3.69;52.01;101272.19;5017065;28;20046;-65
2021/01/16 09:40:15;;;;;;;11.73;7.28;;;;;;;3.72;51.53;101268.97;5012096;28;20352;-65
2021/01/16 09:42:47;;;;;;;12.57;8.27;;;;;;;3.71;51.68;101270.03;5019321;28;20046;-65
2021/01/16 09:45:15;;;;;;;13.30;8.32;;;;;;;3.72;51.00;101267.03;5015326;28;20047;-65
2021/01/16 09:47:45;;;;;;;12.93;8.07;;;;;;;3.78;52.12;101263.28;5018019;28;20057;-65
2021/01/16 09:50:13;;;;;;;14.10;8.55;;;;;;;3.81;51.51;101265.53;5002358;28;20050;-65
2021/01/16 09:52:53;;;;;;;11.60;7.25;;;;;;;3.86;50.75;101257.34;5006464;28;20053;-65
2021/01/16 09:55:26;;;;;;;12.15;7.65;;;;;;;3.86;50.87;101268.38;5009781;28;20057;-65
2021/01/16 09:57:53;;;;;;;12.48;8.50;;;;;;;3.92;50.67;101254.66;5029673;28;20065;-65
2021/01/16 10:00:34;;;;;;;13.25;8.50;;;;;;;4.01;50.28;101256.75;5022102;28;20056;-65
2021/01/16 10:03:05;;;;;;;13.23;8.73;;;;;;;4.14;50.75;101246.47;5010844;28;20061;-65
2021/01/16 10:05:35;;;;;;;13.05;8.75;;;;;;;4.24;50.25;101255.75;5014899;28;20057;-65
2021/01/16 10:08:04;;;;;;;14.90;8.98;;;;;;;4.26;49.95;101252.72;5017618;28;20064;-65
2021/01/16 10:10:45;;;;;;;13.85;8.52;;;;;;;4.24;50.33;101246.59;5010242;28;20046;-65
2021/01/16 10:13:13;;;;;;;14.18;8.65;;;;;;;4.20;49.97;101238.03;5009350;28;20053;-65
2021/01/16 10:15:52;;;;;;;14.77;8.48;;;;;;;4.03;50.33;101240.81;4997691;28;20054;-65
2021/01/16 10:18:20;;;;;;;13.43;8.73;;;;;;;4.10;51.28;101232.38;5012799;28;20414;-65
2021/01/16 10:21:00;;;;;;;14.88;8.70;;;;;;;4.00;50.51;101234.97;5024463;28;20042;-65
2021/01/16 10:23:28;;;;;;;13.55;8.45;;;;;;;4.09;50.43;101227.09;5020579;28;20053;-65
2021/01/16 10:26:10;;;;;;;13.90;9.02;;;;;;;3.92;50.89;101227.94;5002814;28;20049;-65
2021/01/16 10:28:38;;;;;;;15.05;9.00;;;;;;;3.89;50.72;101228.44;5011467;28;20054;-65
2021/01/16 10:31:09;;;;;;;14.63;9.40;;;;;;;3.87;50.63;101225.13;5002015;28;20050;-65
2021/01/16 10:33:39;;;;;;;13.20;8.43;;;;;;;3.93;50.89;101209.50;5012455;28;20054;-65
2021/01/16 10:36:11;;;;;;;13.50;8.00;;;;;;;3.96;51.36;101218.06;4993958;28;20062;-65
2021/01/16 10:38:48;;;;;;;12.93;8.32;;;;;;;3.88;51.18;101223.19;5008868;28;20054;-65
2021/01/16 10:41:17;;;;;;;16.50;9.45;;;;;;;3.96;50.93;101217.25;5009156;28;20062;-65
2021/01/16 10:43:45;;;;;;;14.40;8.60;;;;;;;4.06;50.79;101218.25;5015232;28;20049;-65
2021/01/16 10:46:30;;;;;;;15.18;8.82;;;;;;;4.01;50.17;101218.19;4998586;28;20476;-65
2021/01/16 10:49:16;;;;;;;13.50;8.98;;;;;;;3.98;50.29;101204.06;5012166;28;20057;-65
2021/01/16 10:51:54;;;;;;;15.55;9.30;;;;;;;3.99;51.63;101198.28;5000649;28;20077;-65
2021/01/16 10:54:22;;;;;;;15.15;8.57;;;;;;;4.12;51.63;101199.84;5009608;28;20062;-65
2021/01/16 10:57:04;;;;;;;14.20;9.32;;;;;;;4.17;50.44;101199.09;5013238;28;20064;-65
2021/01/16 10:59:32;;;;;;;13.40;8.55;;;;;;;4.24;50.25;101188.72;5033398;28;20041;-65
2021/01/16 11:02:09;;;;;;;15.65;9.23;;;;;;;4.32;50.14;101199.31;5033244;28;20546;-64
2021/01/16 11:04:39;;;;;;;13.52;8.50;;;;;;;4.35;49.91;101197.97;5034603;28;20050;-64
2021/01/16 11:07:09;;;;;;;12.32;7.90;;;;;;;4.22;49.73;101191.75;5033117;28;20046;-65
2021/01/16 11:09:45;;;;;;;16.60;8.77;;;;;;;4.10;49.82;101195.69;5033668;28;20111;-65
2021/01/16 11:12:25;;;;;;;13.85;8.52;;;;;;;4.02;50.28;101184.00;5033789;28;20065;-65
2021/01/16 11:14:54;;;;;;;14.15;9.35;;;;;;;3.98;50.30;101180.06;5021995;28;20605;-65
2021/01/16 11:17:48;;;;;;;14.60;8.23;;;;;;;4.01;51.14;101171.31;5030539;28;21289;-65
2021/01/16 11:20:20;;;;;;;12.27;8.32;;;;;;;4.04;50.08;101170.78;5034155;28;20480;-65
2021/01/16 11:23:17;;;;;;;15.68;9.32;;;;;;;4.13;51.03;101168.44;5034497;28;20061;-64
2021/01/16 11:25:45;;;;;;;12.52;8.52;;;;;;;4.17;50.73;101163.25;5032961;28;20049;-65
2021/01/16 11:28:20;;;;;;;16.98;9.85;;;;;;;4.11;51.01;101154.06;5032898;28;20072;-65
2021/01/16 11:30:48;;;;;;;16.52;9.85;;;;;;;4.17;50.02;101157.72;5034012;28;20057;-65
2021/01/16 11:33:23;;;;;;;16.75;9.27;;;;;;;4.20;50.78;101152.56;5034170;28;20057;-65
2021/01/16 11:35:56;;;;;;;15.05;9.30;;;;;;;4.24;51.02;101147.34;5034661;28;20049;-65
2021/01/16 11:38:42;;;;;;;14.93;9.73;;;;;;;4.32;50.12;101137.81;5034806;28;20060;-65
2021/01/16 11:41:11;;;;;;;16.92;9.85;;;;;;;4.33;50.37;101133.97;5033875;28;20050;-65